Time;durP1;ratioP1;P1;durP2;ratioP2;P2;SDS_P1;SDS_P2;PMS_P1;PMS_P2;Temp;Humidity;BMP_temperature;BMP_pressure;BME280_temperature;BME280_humidity;BME280_pressure;Samples;Min_cycle;Max_cycle;Signal;HPM_P1;HPM_P2
2021/07/03 00:01:59;;;;;;;10.40;8.17;;;16.90;99.90;;;;;;5001871;28;20498;-79
2021/07/03 00:04:27;;;;;;;12.23;9.20;;;16.80;99.90;;;;;;5001207;28;20468;-81
2021/07/03 00:06:55;;;;;;;13.13;8.30;;;16.60;99.90;;;;;;5001286;28;20414;-82
2021/07/03 00:09:23;;;;;;;14.30;8.87;;;16.60;99.90;;;;;;5001417;28;20404;-80
2021/07/03 00:11:51;;;;;;;11.53;9.17;;;16.50;99.90;;;;;;5000614;28;20401;-78
2021/07/03 00:14:20;;;;;;;10.10;7.70;;;16.50;99.90;;;;;;4999293;28;20508;-80
2021/07/03 00:16:48;;;;;;;10.70;8.73;;;16.50;99.90;;;;;;5000206;28;20920;-79
2021/07/03 00:19:17;;;;;;;9.93;8.93;;;16.40;99.90;;;;;;5001370;28;20461;-81
2021/07/03 00:21:46;;;;;;;14.10;10.90;;;16.40;99.90;;;;;;5003127;28;20432;-78
2021/07/03 00:24:14;;;;;;;11.47;8.57;;;16.40;99.90;;;;;;5001986;28;20473;-81
2021/07/03 00:26:42;;;;;;;9.03;7.70;;;16.40;99.90;;;;;;4983051;28;20434;-80
2021/07/03 00:29:10;;;;;;;11.47;9.03;;;16.40;99.90;;;;;;5001340;28;20429;-79
2021/07/03 00:31:38;;;;;;;11.77;8.67;;;16.40;99.90;;;;;;4999692;28;20396;-80
2021/07/03 00:34:07;;;;;;;10.67;8.83;;;16.40;99.90;;;;;;5000317;28;20469;-81
2021/07/03 00:36:36;;;;;;;12.37;9.40;;;16.30;99.90;;;;;;4999538;28;20461;-80
2021/07/03 00:39:05;;;;;;;10.57;8.10;;;16.30;99.90;;;;;;4998924;28;20440;-81
2021/07/03 00:41:33;;;;;;;11.17;9.60;;;16.30;99.90;;;;;;4999234;28;20434;-80
2021/07/03 00:44:02;;;;;;;11.03;9.73;;;16.40;99.90;;;;;;4982795;28;20958;-79
2021/07/03 00:46:30;;;;;;;14.50;9.27;;;16.50;99.90;;;;;;4981606;28;20430;-79
2021/07/03 00:48:59;;;;;;;13.33;9.20;;;16.60;99.90;;;;;;4981991;28;20446;-79
2021/07/03 00:51:28;;;;;;;15.00;10.53;;;16.60;99.90;;;;;;4982342;28;20466;-79
2021/07/03 00:53:59;;;;;;;11.30;10.10;;;16.50;99.90;;;;;;4982112;28;20490;-80
2021/07/03 00:56:28;;;;;;;11.87;9.37;;;16.40;99.90;;;;;;4998203;28;20484;-80
2021/07/03 00:58:56;;;;;;;16.03;11.13;;;16.40;99.90;;;;;;4981533;28;20464;-80
2021/07/03 01:01:25;;;;;;;16.17;9.90;;;16.30;99.90;;;;;;4981871;28;20436;-79
2021/07/03 01:03:53;;;;;;;14.97;10.80;;;16.20;99.90;;;;;;4999843;28;20440;-79
2021/07/03 01:06:24;;;;;;;14.90;12.67;;;16.20;99.90;;;;;;4998983;28;20440;-81
2021/07/03 01:08:53;;;;;;;14.67;10.93;;;16.10;99.90;;;;;;4999213;28;20452;-80
2021/07/03 01:11:28;;;;;;;14.97;11.20;;;16.10;99.90;;;;;;4998026;28;20401;-80
2021/07/03 01:13:57;;;;;;;17.23;11.30;;;16.10;99.90;;;;;;4982018;28;20480;-78
2021/07/03 01:16:25;;;;;;;12.50;11.17;;;16.10;99.90;;;;;;4997257;28;20476;-80
2021/07/03 01:18:54;;;;;;;12.63;10.70;;;16.00;99.90;;;;;;4982142;28;20456;-81
2021/07/03 01:21:23;;;;;;;15.60;12.30;;;15.90;99.90;;;;;;4982962;28;20449;-80
2021/07/03 01:23:54;;;;;;;14.10;10.67;;;15.80;99.90;;;;;;5000239;28;20443;-81
2021/07/03 01:26:22;;;;;;;14.40;10.97;;;15.80;99.90;;;;;;5001721;28;20400;-79
2021/07/03 01:28:51;;;;;;;16.87;11.07;;;15.80;99.90;;;;;;5001589;28;20466;-81
2021/07/03 01:31:22;;;;;;;12.43;9.80;;;15.70;99.90;;;;;;4987979;28;20437;-78
2021/07/03 01:33:50;;;;;;;24.50;12.60;;;15.70;99.90;;;;;;5006887;28;20492;-78
2021/07/03 01:36:20;;;;;;;11.77;10.57;;;15.60;99.90;;;;;;5001560;28;20441;-79
2021/07/03 01:38:48;;;;;;;15.00;12.50;;;15.60;99.90;;;;;;4981207;28;20778;-80
2021/07/03 01:41:17;;;;;;;20.07;12.73;;;15.70;99.90;;;;;;4998910;28;20446;-80
2021/07/03 01:43:50;;;;;;;15.57;11.80;;;15.70;99.10;;;;;;4997585;28;20424;-81
2021/07/03 01:46:19;;;;;;;17.20;11.70;;;15.60;99.90;;;;;;4981717;28;20461;-80
2021/07/03 01:48:48;;;;;;;18.60;14.10;;;15.50;99.90;;;;;;4999360;28;20477;-80
2021/07/03 01:51:30;;;;;;;13.93;11.57;;;15.40;99.90;;;;;;4981650;28;20955;-79
2021/07/03 01:53:59;;;;;;;17.50;11.87;;;15.40;40.60;;;;;;4999875;28;20457;-80
2021/07/03 01:56:28;;;;;;;24.23;11.77;;;15.60;1.00;;;;;;4981672;28;20434;-78
2021/07/03 01:58:58;;;;;;;17.20;13.60;;;15.50;99.90;;;;;;4998350;28;20816;-80
2021/07/03 02:01:34;;;;;;;14.20;12.40;;;15.60;99.90;;;;;;4981701;28;20779;-80
2021/07/03 02:04:03;;;;;;;17.80;12.33;;;15.50;1.00;;;;;;4985025;28;20488;-81
2021/07/03 02:06:42;;;;;;;14.27;11.50;;;15.50;88.00;;;;;;4997167;28;20832;-78
2021/07/03 02:09:12;;;;;;;20.67;12.47;;;15.50;1.00;;;;;;4996785;28;20444;-81
2021/07/03 02:11:42;;;;;;;17.47;12.23;;;15.60;1.00;;;;;;4995912;28;20496;-79
2021/07/03 02:14:18;;;;;;;18.70;13.60;;;15.60;99.90;;;;;;4978291;28;20984;-80
2021/07/03 02:16:59;;;;;;;17.80;13.33;;;15.60;99.90;;;;;;4979075;28;20496;-80
2021/07/03 02:19:28;;;;;;;15.57;12.07;;;15.60;99.90;;;;;;4981700;28;20484;-80
2021/07/03 02:21:59;;;;;;;16.50;11.73;;;15.40;1.00;;;;;;4980732;28;20517;-77
2021/07/03 02:24:37;;;;;;;17.93;13.10;;;15.30;99.90;;;;;;4982755;28;20485;-80
2021/07/03 02:27:07;;;;;;;14.33;12.87;;;15.40;1.00;;;;;;4993779;28;20444;-80
2021/07/03 02:29:36;;;;;;;19.83;14.13;;;15.30;1.00;;;;;;4994007;28;20441;-81
2021/07/03 02:32:05;;;;;;;18.60;12.90;;;15.20;1.00;;;;;;4993608;28;20399;-80
2021/07/03 02:34:34;;;;;;;18.13;13.50;;;15.20;99.90;;;;;;4993864;28;20456;-80
2021/07/03 02:37:04;;;;;;;16.30;11.93;;;15.20;99.90;;;;;;4993840;28;20499;-79
2021/07/03 02:39:34;;;;;;;14.60;12.37;;;15.20;99.90;;;;;;4993367;28;20751;-78
2021/07/03 02:42:03;;;;;;;23.37;15.30;;;15.30;99.90;;;;;;4992812;28;20428;-80
2021/07/03 02:44:34;;;;;;;18.73;14.50;;;15.20;73.60;;;;;;4975514;28;20849;-80
2021/07/03 02:47:02;;;;;;;19.93;15.00;;;15.20;91.20;;;;;;4999801;28;20457;-81
2021/07/03 02:49:31;;;;;;;18.90;14.03;;;15.10;99.90;;;;;;4999429;28;20848;-80
2021/07/03 02:51:59;;;;;;;16.77;12.23;;;15.20;3.80;;;;;;4985363;28;20430;-78
2021/07/03 02:54:27;;;;;;;20.10;14.30;;;15.10;1.00;;;;;;4989714;28;20453;-78
2021/07/03 02:56:58;;;;;;;19.47;13.53;;;15.10;61.30;;;;;;5008028;28;20457;-78
2021/07/03 02:59:29;;;;;;;17.30;13.73;;;15.10;99.90;;;;;;4991977;28;20449;-81
2021/07/03 03:02:01;;;;;;;23.03;14.57;;;15.20;99.90;;;;;;4984314;28;20400;-81
2021/07/03 03:04:32;;;;;;;18.87;13.00;;;15.20;99.90;;;;;;4984599;28;20461;-80
2021/07/03 03:07:00;;;;;;;19.57;13.30;;;15.20;26.20;;;;;;4985066;28;20438;-81
2021/07/03 03:09:30;;;;;;;16.83;12.40;;;15.20;2.20;;;;;;4984358;28;20808;-80
2021/07/03 03:12:00;;;;;;;13.93;10.73;;;15.20;1.00;;;;;;5001437;28;20797;-81
2021/07/03 03:14:28;;;;;;;21.33;14.83;;;15.20;1.00;;;;;;4984471;28;20462;-81
2021/07/03 03:16:57;;;;;;;19.20;12.43;;;15.30;1.00;;;;;;5001745;28;20423;-81
2021/07/03 03:19:26;;;;;;;16.03;12.33;;;15.30;1.00;;;;;;5000892;28;20446;-79
2021/07/03 03:21:55;;;;;;;19.53;14.70;;;15.20;1.00;;;;;;5001147;28;20425;-80
2021/07/03 03:24:24;;;;;;;16.47;12.47;;;15.20;1.00;;;;;;5002100;28;21055;-80
2021/07/03 03:26:54;;;;;;;19.43;12.83;;;15.20;1.00;;;;;;4984071;28;20480;-80
2021/07/03 03:29:24;;;;;;;22.07;14.23;;;15.30;11.90;;;;;;4984192;28;20446;-81
2021/07/03 03:31:55;;;;;;;20.50;13.27;;;15.40;1.00;;;;;;4984599;28;20477;-81
2021/07/03 03:34:26;;;;;;;18.03;13.13;;;15.50;99.90;;;;;;4992117;23;20502;-70
2021/07/03 03:36:56;;;;;;;19.53;14.63;;;15.60;1.00;;;;;;4955295;28;20431;-69
2021/07/03 03:39:25;;;;;;;16.37;13.07;;;15.70;1.00;;;;;;4973845;28;20408;-69
2021/07/03 03:41:55;;;;;;;18.63;12.63;;;15.80;1.00;;;;;;4973686;28;20455;-69
2021/07/03 03:44:24;;;;;;;14.43;12.10;;;16.10;26.00;;;;;;4956222;28;20937;-67
2021/07/03 03:46:52;;;;;;;15.73;11.90;;;16.60;99.90;;;;;;4972845;28;20470;-68
2021/07/03 03:49:27;;;;;;;15.50;12.30;;;17.00;99.90;;;;;;4973099;28;20935;-69
2021/07/03 03:51:56;;;;;;;16.87;12.60;;;17.00;99.90;;;;;;4955191;28;20537;-68
2021/07/03 03:54:26;;;;;;;16.47;11.70;;;17.20;1.00;;;;;;4972796;28;20418;-66
2021/07/03 03:59:37;;;;;;;16.43;12.60;;;17.60;99.90;;;;;;4955314;28;20860;-69
2021/07/03 04:02:06;;;;;;;18.30;11.97;;;17.80;99.90;;;;;;4973181;28;20526;-66
2021/07/03 04:04:38;;;;;;;17.43;12.43;;;18.00;99.90;;;;;;4956233;28;20417;-69
2021/07/03 04:07:08;;;;;;;19.00;11.80;;;18.40;99.90;;;;;;4972149;28;20473;-68
2021/07/03 04:09:37;;;;;;;18.73;13.30;;;18.80;99.90;;;;;;4955725;28;20421;-69
2021/07/03 04:12:05;;;;;;;16.47;13.50;;;19.50;99.90;;;;;;4955243;28;20444;-69
2021/07/03 04:14:34;;;;;;;12.70;9.47;;;19.70;99.90;;;;;;4972451;28;20469;-69
2021/07/03 04:17:02;;;;;;;14.87;11.00;;;19.90;99.90;;;;;;4972254;28;20859;-68
2021/07/03 04:19:31;;;;;;;16.83;12.27;;;20.10;99.90;;;;;;4972553;28;20426;-67
2021/07/03 04:22:01;;;;;;;13.93;12.47;;;20.40;99.90;;;;;;4972528;28;20450;-69
2021/07/03 04:24:29;;;;;;;15.13;11.93;;;20.70;99.90;;;;;;4972019;28;20402;-68
2021/07/03 04:26:57;;;;;;;12.97;11.57;;;21.00;97.30;;;;;;4971829;28;20437;-68
2021/07/03 04:29:28;;;;;;;14.53;12.57;;;21.20;93.60;;;;;;4971755;28;20424;-69
2021/07/03 04:31:57;;;;;;;14.60;10.83;;;21.70;89.50;;;;;;4972264;28;20486;-68
2021/07/03 04:34:25;;;;;;;14.90;11.10;;;22.10;76.70;;;;;;4972281;28;20428;-67
2021/07/03 04:36:53;;;;;;;12.90;11.23;;;22.50;68.80;;;;;;4971995;28;20934;-68
2021/07/03 04:39:23;;;;;;;11.57;10.30;;;22.40;64.00;;;;;;4971658;28;20437;-69
2021/07/03 04:41:51;;;;;;;12.60;11.27;;;22.70;58.10;;;;;;4954590;28;20471;-68
2021/07/03 04:44:20;;;;;;;17.80;12.23;;;22.00;56.60;;;;;;4971861;28;20423;-68
2021/07/03 04:46:48;;;;;;;12.33;10.77;;;21.10;68.10;;;;;;4971563;28;20511;-68
2021/07/03 04:49:17;;;;;;;14.40;12.37;;;21.10;72.80;;;;;;4972029;28;20526;-68
2021/07/03 04:51:45;;;;;;;15.90;13.20;;;22.20;55.70;;;;;;4971883;28;20447;-67
2021/07/03 04:54:13;;;;;;;13.20;11.87;;;22.00;53.30;;;;;;4971845;28;20806;-66
2021/07/03 04:56:42;;;;;;;15.27;11.60;;;21.90;52.80;;;;;;4971378;28;20422;-65
2021/07/03 04:59:11;;;;;;;13.50;12.10;;;21.40;55.50;;;;;;4954598;28;20417;-68
2021/07/03 05:01:39;;;;;;;15.27;12.83;;;21.50;54.70;;;;;;4971862;28;20985;-68
2021/07/03 05:04:07;;;;;;;18.30;12.40;;;21.50;51.50;;;;;;4971764;28;20401;-68
2021/07/03 05:06:35;;;;;;;14.27;11.87;;;21.00;55.90;;;;;;4971408;28;20536;-67
2021/07/03 05:09:03;;;;;;;14.80;12.40;;;20.60;63.10;;;;;;4971357;28;20922;-69
2021/07/03 05:11:31;;;;;;;16.53;12.33;;;20.20;78.90;;;;;;4971784;28;20789;-68
2021/07/03 05:14:01;;;;;;;15.93;12.40;;;19.60;95.40;;;;;;4971958;28;20402;-68
2021/07/03 05:16:29;;;;;;;13.57;10.63;;;18.90;99.90;;;;;;4972485;28;20885;-68
2021/07/03 05:18:58;;;;;;;12.50;10.83;;;18.80;99.90;;;;;;4954850;28;20417;-69
2021/07/03 05:21:26;;;;;;;17.33;13.57;;;18.80;99.90;;;;;;4972250;28;20468;-67
2021/07/03 05:23:54;;;;;;;12.50;11.20;;;18.70;99.90;;;;;;4954758;28;20490;-69
2021/07/03 05:26:22;;;;;;;19.00;12.43;;;18.70;99.90;;;;;;4971256;28;20489;-68
2021/07/03 05:28:50;;;;;;;17.70;12.10;;;18.70;99.90;;;;;;4953747;28;20401;-68
2021/07/03 05:31:20;;;;;;;17.40;12.87;;;19.00;99.90;;;;;;4971264;28;20436;-67
2021/07/03 05:33:49;;;;;;;15.60;13.33;;;19.10;99.90;;;;;;4953841;28;20440;-68
2021/07/03 05:36:17;;;;;;;16.63;13.00;;;18.90;99.90;;;;;;4971089;28;20394;-68
2021/07/03 05:38:47;;;;;;;14.60;11.93;;;19.00;99.90;;;;;;4970968;28;20461;-67
2021/07/03 05:41:16;;;;;;;15.97;12.23;;;19.30;99.90;;;;;;4971447;28;20429;-68
2021/07/03 05:43:45;;;;;;;17.07;15.20;;;19.40;99.90;;;;;;4971464;28;20385;-68
2021/07/03 05:46:14;;;;;;;15.73;11.50;;;19.40;99.90;;;;;;4970815;28;20509;-68
2021/07/03 05:48:44;;;;;;;17.83;11.60;;;19.30;99.90;;;;;;4971140;28;20423;-68
2021/07/03 05:51:13;;;;;;;17.07;12.50;;;19.30;99.90;;;;;;4971414;28;20450;-67
2021/07/03 05:53:41;;;;;;;14.37;11.40;;;19.30;99.90;;;;;;4971546;28;20413;-68
2021/07/03 05:56:10;;;;;;;15.50;12.30;;;19.50;99.90;;;;;;4971025;28;20438;-69
2021/07/03 05:58:38;;;;;;;15.93;12.87;;;19.70;98.60;;;;;;4971218;28;20397;-68
2021/07/03 06:01:06;;;;;;;16.50;11.60;;;19.80;99.90;;;;;;4971164;28;20429;-68
2021/07/03 06:03:34;;;;;;;21.80;13.83;;;20.10;98.00;;;;;;4971414;28;20410;-69
2021/07/03 06:06:03;;;;;;;14.07;12.33;;;20.30;86.60;;;;;;4970668;28;20425;-68
2021/07/03 06:08:32;;;;;;;16.00;11.60;;;20.50;86.60;;;;;;4971324;28;20405;-68
2021/07/03 06:11:00;;;;;;;15.77;10.97;;;20.70;76.10;;;;;;4971060;28;20420;-69
2021/07/03 06:13:29;;;;;;;12.97;11.53;;;20.60;66.90;;;;;;4971297;28;20394;-68
2021/07/03 06:15:57;;;;;;;16.57;11.60;;;20.60;69.80;;;;;;4970750;28;20412;-68
2021/07/03 06:18:25;;;;;;;12.70;10.07;;;20.70;70.40;;;;;;4971004;28;20402;-68
2021/07/03 06:20:54;;;;;;;11.50;9.37;;;20.80;57.40;;;;;;4971182;28;20440;-68
2021/07/03 06:23:23;;;;;;;12.60;9.30;;;20.70;59.30;;;;;;4971092;28;20434;-68
2021/07/03 06:25:51;;;;;;;14.83;9.53;;;20.60;57.70;;;;;;4970718;28;20405;-69
2021/07/03 06:28:19;;;;;;;11.70;9.73;;;20.60;58.50;;;;;;4970756;28;20440;-68
2021/07/03 06:30:48;;;;;;;17.10;10.47;;;20.40;50.40;;;;;;4973829;28;20417;-68
2021/07/03 06:33:16;;;;;;;10.47;9.40;;;20.10;52.20;;;;;;4974814;28;20417;-68
2021/07/03 06:35:44;;;;;;;12.40;9.70;;;20.10;60.00;;;;;;4974468;28;20386;-68
2021/07/03 06:38:12;;;;;;;9.40;8.53;;;20.20;59.00;;;;;;4957958;28;20445;-68
2021/07/03 06:40:42;;;;;;;10.30;8.10;;;20.20;52.30;;;;;;4974984;28;20810;-69
2021/07/03 06:43:10;;;;;;;12.33;9.03;;;20.40;58.40;;;;;;4975680;28;20534;-70
2021/07/03 06:45:38;;;;;;;10.70;9.10;;;20.60;62.60;;;;;;4975043;28;20401;-70
2021/07/03 06:48:07;;;;;;;12.73;8.23;;;20.50;43.40;;;;;;4974994;28;20436;-70
2021/07/03 06:50:35;;;;;;;9.77;7.60;;;20.30;46.80;;;;;;4974330;28;20427;-69
2021/07/03 06:53:03;;;;;;;10.80;9.40;;;20.20;50.00;;;;;;4974576;28;20404;-69
2021/07/03 06:55:31;;;;;;;13.80;9.80;;;20.20;56.50;;;;;;4973850;28;20413;-70
2021/07/03 06:58:01;;;;;;;11.73;9.70;;;20.40;52.70;;;;;;4974307;28;20796;-69
2021/07/03 07:00:29;;;;;;;11.60;9.60;;;20.30;46.50;;;;;;4974042;28;20417;-69
2021/07/03 07:02:58;;;;;;;10.20;9.20;;;20.40;48.70;;;;;;4974132;28;20402;-69
2021/07/03 07:05:26;;;;;;;13.10;11.07;;;20.30;50.60;;;;;;4973713;28;20402;-68
2021/07/03 07:07:54;;;;;;;12.30;9.73;;;20.40;52.60;;;;;;4973889;28;20485;-68
2021/07/03 07:10:22;;;;;;;21.97;19.30;;;20.30;41.10;;;;;;4973615;28;20417;-69
2021/07/03 07:12:50;;;;;;;12.97;11.60;;;20.30;38.90;;;;;;4974400;28;20433;-67
2021/07/03 07:15:20;;;;;;;10.53;8.87;;;20.50;48.40;;;;;;4973420;28;20402;-68
2021/07/03 07:17:48;;;;;;;11.23;9.53;;;20.60;35.90;;;;;;4973636;28;20389;-69
2021/07/03 07:20:16;;;;;;;15.20;12.60;;;20.70;33.30;;;;;;4973579;28;20439;-68
2021/07/03 07:22:44;;;;;;;10.00;8.30;;;20.60;36.90;;;;;;4973791;28;20404;-68
2021/07/03 07:25:13;;;;;;;10.40;8.77;;;20.50;33.20;;;;;;4956077;28;20428;-68
2021/07/03 07:27:41;;;;;;;16.67;9.10;;;20.30;38.40;;;;;;4973331;28;20462;-68
2021/07/03 07:30:10;;;;;;;11.07;9.47;;;20.10;43.90;;;;;;4973457;28;20558;-68
2021/07/03 07:32:40;;;;;;;15.37;10.53;;;20.20;47.50;;;;;;4973558;28;20430;-69
2021/07/03 07:35:09;;;;;;;9.43;7.57;;;20.60;49.60;;;;;;4973546;28;20436;-68
2021/07/03 07:37:37;;;;;;;11.90;10.03;;;21.00;43.90;;;;;;4973597;28;20401;-68
2021/07/03 07:40:07;;;;;;;10.97;9.83;;;21.20;42.10;;;;;;4973413;28;20426;-68
2021/07/03 07:42:36;;;;;;;17.50;14.00;;;21.40;41.50;;;;;;4972758;28;20405;-68
2021/07/03 07:45:05;;;;;;;17.90;16.00;;;21.60;37.00;;;;;;4973264;28;20402;-69
2021/07/03 07:47:47;;;;;;;26.17;19.57;;;21.80;34.40;;;;;;4973368;28;20440;-68
2021/07/03 07:50:15;;;;;;;14.30;10.93;;;22.10;33.30;;;;;;4973411;28;20405;-68
2021/07/03 07:52:44;;;;;;;14.37;11.20;;;22.10;27.70;;;;;;4972869;28;20405;-68
2021/07/03 07:55:13;;;;;;;17.20;11.53;;;21.90;28.40;;;;;;4973009;28;20452;-69
2021/07/03 07:57:41;;;;;;;11.67;8.20;;;21.80;30.10;;;;;;4972871;28;20409;-68
2021/07/03 08:00:10;;;;;;;14.70;10.00;;;21.90;25.60;;;;;;4969685;28;20640;-68
2021/07/03 08:02:42;;;;;;;12.13;8.87;;;22.00;23.50;;;;;;4967914;28;20454;-68
2021/07/03 08:05:13;;;;;;;11.20;9.40;;;22.10;24.90;;;;;;4972704;28;20493;-68
2021/07/03 08:07:41;;;;;;;15.37;9.83;;;22.30;23.70;;;;;;4971314;28;20471;-68
2021/07/03 08:10:11;;;;;;;10.00;9.00;;;22.50;21.50;;;;;;4972633;28;20435;-68
2021/07/03 08:12:39;;;;;;;9.90;8.90;;;22.20;19.30;;;;;;4972842;28;20435;-68
2021/07/03 08:15:09;;;;;;;12.87;9.60;;;22.20;19.40;;;;;;4973100;28;20752;-68
2021/07/03 08:17:43;;;;;;;12.63;11.33;;;22.50;18.70;;;;;;4972566;28;20848;-68
2021/07/03 08:20:15;;;;;;;8.70;7.90;;;22.50;16.20;;;;;;4972782;28;20434;-69
2021/07/03 08:22:44;;;;;;;9.93;8.93;;;22.60;14.90;;;;;;4972867;28;20409;-69
2021/07/03 08:25:13;;;;;;;9.60;8.60;;;22.20;22.60;;;;;;4972669;28;20397;-68
2021/07/03 08:27:41;;;;;;;9.97;8.60;;;21.90;14.40;;;;;;4972693;28;20437;-68
2021/07/03 08:30:11;;;;;;;11.83;9.37;;;21.70;16.00;;;;;;4971412;28;20445;-69
2021/07/03 08:32:40;;;;;;;10.03;9.03;;;21.90;14.70;;;;;;4972939;28;20413;-68
2021/07/03 08:35:10;;;;;;;12.10;8.73;;;22.30;14.30;;;;;;4972010;28;21006;-68
2021/07/03 08:37:40;;;;;;;9.17;8.27;;;22.50;12.90;;;;;;4972344;28;20787;-68
2021/07/03 08:40:09;;;;;;;10.67;8.50;;;22.50;13.40;;;;;;4972509;28;20773;-68
2021/07/03 08:42:37;;;;;;;15.60;9.90;;;22.70;9.10;;;;;;4972430;28;20431;-69
2021/07/03 08:45:07;;;;;;;10.93;7.73;;;22.70;8.50;;;;;;4972399;28;20781;-67
2021/07/03 08:47:39;;;;;;;9.87;8.00;;;23.00;9.10;;;;;;4972134;28;20964;-67
2021/07/03 08:50:10;;;;;;;10.80;9.00;;;23.00;6.70;;;;;;4971061;28;20447;-69
2021/07/03 08:52:40;;;;;;;9.80;8.70;;;22.70;5.20;;;;;;4971682;28;20437;-68
2021/07/03 08:55:16;;;;;;;9.30;8.27;;;22.50;5.40;;;;;;4971901;28;20450;-68
2021/07/03 08:57:48;;;;;;;9.73;8.73;;;22.30;5.50;;;;;;4972490;28;20849;-69
2021/07/03 09:00:18;;;;;;;10.20;9.10;;;22.20;8.50;;;;;;4972010;28;20936;-67
2021/07/03 09:02:47;;;;;;;9.50;7.63;;;22.10;8.90;;;;;;4972336;28;20413;-67
2021/07/03 09:05:20;;;;;;;16.50;9.27;;;22.10;8.80;;;;;;4971624;28;20437;-68
2021/07/03 09:07:50;;;;;;;10.27;9.07;;;22.30;7.40;;;;;;4971321;28;20928;-69
2021/07/03 09:10:23;;;;;;;10.40;9.43;;;22.40;5.50;;;;;;4962328;28;20957;-66
2021/07/03 09:12:52;;;;;;;9.57;8.57;;;22.60;13.40;;;;;;4971054;28;20847;-66
2021/07/03 09:15:22;;;;;;;10.83;7.93;;;22.30;4.00;;;;;;4972162;28;20427;-69
2021/07/03 09:17:52;;;;;;;10.20;7.60;;;22.30;4.10;;;;;;4972728;28;20423;-69
2021/07/03 09:20:25;;;;;;;8.40;7.50;;;22.50;5.40;;;;;;4972554;28;20415;-69
2021/07/03 09:23:04;;;;;;;8.13;7.30;;;22.40;12.40;;;;;;4972346;28;20418;-69
2021/07/03 09:25:32;;;;;;;12.07;9.20;;;22.30;1.00;;;;;;4972125;28;20423;-68
2021/07/03 09:28:09;;;;;;;7.37;6.63;;;22.10;1.10;;;;;;4970380;28;20993;-69
2021/07/03 09:30:38;;;;;;;7.23;6.50;;;22.10;1.60;;;;;;4971910;28;20442;-69
2021/07/03 09:33:06;;;;;;;8.40;7.07;;;22.70;1.60;;;;;;4970366;28;20443;-69
2021/07/03 09:35:35;;;;;;;9.90;8.00;;;23.10;1.00;;;;;;4970379;28;20426;-68
2021/07/03 09:38:07;;;;;;;8.63;7.83;;;23.40;1.00;;;;;;4971398;28;20435;-69
2021/07/03 09:40:38;;;;;;;10.10;9.00;;;23.30;1.00;;;;;;4971902;28;20434;-68
2021/07/03 09:43:09;;;;;;;10.10;7.73;;;23.20;1.00;;;;;;4971541;28;20441;-67
2021/07/03 09:45:39;;;;;;;9.80;6.93;;;23.00;1.00;;;;;;4954529;28;20556;-66
2021/07/03 09:48:09;;;;;;;6.80;6.20;;;22.90;1.00;;;;;;4971280;28;20999;-70
2021/07/03 09:50:40;;;;;;;8.83;7.80;;;22.60;1.00;;;;;;4971511;28;20447;-68
2021/07/03 09:53:10;;;;;;;7.27;6.47;;;22.60;1.00;;;;;;4972411;28;20409;-70
2021/07/03 09:55:38;;;;;;;9.70;7.77;;;22.70;1.00;;;;;;4972454;28;20959;-70
2021/07/03 09:58:09;;;;;;;8.03;6.77;;;22.90;1.00;;;;;;4972629;28;20427;-69
2021/07/03 10:00:39;;;;;;;8.43;6.57;;;23.30;1.00;;;;;;4972736;28;20442;-70
2021/07/03 10:03:09;;;;;;;6.77;6.03;;;23.50;1.00;;;;;;4972620;28;20770;-68
2021/07/03 10:05:40;;;;;;;9.90;7.37;;;23.90;1.00;;;;;;4975535;28;20423;-69
2021/07/03 10:08:12;;;;;;;10.00;7.30;;;24.20;1.00;;;;;;4976463;28;20462;-69
2021/07/03 10:10:44;;;;;;;6.87;6.10;;;24.20;1.00;;;;;;4976438;28;20438;-69
2021/07/03 10:13:20;;;;;;;7.60;6.80;;;23.90;1.00;;;;;;4976112;28;20449;-68
2021/07/03 10:15:49;;;;;;;7.00;6.30;;;23.30;1.00;;;;;;4975853;28;20461;-68
2021/07/03 10:18:23;;;;;;;7.97;7.17;;;23.20;1.00;;;;;;4959042;28;20839;-69
2021/07/03 10:20:52;;;;;;;7.70;6.50;;;23.40;1.00;;;;;;4977022;28;20453;-69
2021/07/03 10:23:22;;;;;;;8.20;7.40;;;23.30;1.00;;;;;;4976329;28;20406;-67
2021/07/03 10:25:51;;;;;;;8.00;7.20;;;23.40;1.00;;;;;;4959152;28;20985;-68
2021/07/03 10:28:31;;;;;;;7.77;7.00;;;23.30;1.00;;;;;;4976127;28;20415;-69
2021/07/03 10:31:05;;;;;;;7.20;6.50;;;23.70;1.00;;;;;;4974925;28;20869;-68
2021/07/03 10:33:46;;;;;;;7.93;7.07;;;24.10;1.00;;;;;;4974054;28;20933;-68
2021/07/03 10:36:28;;;;;;;7.77;6.70;;;24.40;1.00;;;;;;4975140;28;20471;-69
2021/07/03 10:38:59;;;;;;;7.27;6.57;;;24.00;1.00;;;;;;4974918;28;20966;-68
2021/07/03 10:41:28;;;;;;;6.53;5.93;;;23.70;1.00;;;;;;4975629;28;20417;-67
2021/07/03 10:44:05;;;;;;;5.60;4.90;;;23.70;1.00;;;;;;4974808;28;20793;-69
2021/07/03 10:46:36;;;;;;;6.63;6.03;;;23.90;1.00;;;;;;4974698;28;20449;-68
2021/07/03 10:49:07;;;;;;;9.20;6.47;;;24.00;1.00;;;;;;4974936;28;20469;-67
2021/07/03 10:51:38;;;;;;;7.93;7.00;;;24.10;1.00;;;;;;4974432;28;20458;-68
2021/07/03 10:54:13;;;;;;;8.10;7.30;;;24.10;1.00;;;;;;4975070;28;20792;-68
2021/07/03 10:56:47;;;;;;;8.13;6.33;;;24.20;1.00;;;;;;4974866;28;20434;-69
2021/07/03 10:59:16;;;;;;;9.10;8.30;;;24.30;1.00;;;;;;4974840;28;20808;-67
2021/07/03 11:01:46;;;;;;;7.60;6.80;;;24.50;1.00;;;;;;4974675;28;20446;-68
2021/07/03 11:04:19;;;;;;;7.67;6.87;;;24.60;1.00;;;;;;4957155;28;20443;-68
2021/07/03 11:06:50;;;;;;;9.20;7.33;;;24.40;1.00;;;;;;4973753;28;20434;-67
2021/07/03 11:09:22;;;;;;;7.13;6.43;;;24.30;1.00;;;;;;4974578;28;20473;-68
2021/07/03 11:11:50;;;;;;;7.57;6.83;;;23.90;1.00;;;;;;4973166;28;20510;-67
2021/07/03 11:14:19;;;;;;;6.87;6.27;;;24.00;1.00;;;;;;4971480;28;20434;-68
2021/07/03 11:16:51;;;;;;;8.27;7.57;;;24.20;1.00;;;;;;4972813;28;20927;-68
2021/07/03 11:19:25;;;;;;;5.57;5.10;;;24.50;1.00;;;;;;4973141;28;20427;-68
2021/07/03 11:22:04;;;;;;;7.80;6.57;;;24.90;1.00;;;;;;4972944;28;20447;-68
2021/07/03 11:24:45;;;;;;;9.87;5.90;;;24.70;1.00;;;;;;4973227;28;20433;-68
2021/07/03 11:27:24;;;;;;;8.90;8.00;;;24.80;1.00;;;;;;4973011;28;21204;-68
2021/07/03 11:29:52;;;;;;;6.17;5.50;;;24.50;1.00;;;;;;4969380;28;20462;-66
2021/07/03 11:32:20;;;;;;;7.23;6.50;;;24.20;1.00;;;;;;4972265;28;20489;-68
2021/07/03 11:34:54;;;;;;;7.43;6.63;;;24.30;1.00;;;;;;4973580;28;20425;-67
2021/07/03 11:37:26;;;;;;;7.40;6.30;;;24.40;1.00;;;;;;4973004;28;20939;-67
2021/07/03 11:39:57;;;;;;;6.30;5.70;;;24.00;1.00;;;;;;4973179;28;21011;-68
2021/07/03 11:42:27;;;;;;;5.43;4.73;;;23.50;1.00;;;;;;4971955;28;20467;-69
2021/07/03 11:44:56;;;;;;;5.40;4.90;;;23.40;1.00;;;;;;4973510;28;20807;-68
2021/07/03 11:47:39;;;;;;;5.10;4.60;;;23.30;1.00;;;;;;4974189;28;20415;-69
2021/07/03 11:50:10;;;;;;;6.33;5.40;;;23.50;1.00;;;;;;4974867;28;20474;-69
2021/07/03 11:52:46;;;;;;;6.73;6.20;;;23.80;1.00;;;;;;4957580;28;20846;-69
2021/07/03 11:55:17;;;;;;;6.37;5.50;;;23.90;1.00;;;;;;4973924;28;20434;-69
2021/07/03 11:57:47;;;;;;;6.20;5.70;;;23.90;1.00;;;;;;4973858;28;20507;-68
2021/07/03 12:00:17;;;;;;;6.43;4.87;;;24.10;1.00;;;;;;4973539;28;20427;-68
2021/07/03 12:02:46;;;;;;;7.90;6.27;;;24.10;1.00;;;;;;4973798;28;20434;-69
2021/07/03 12:05:15;;;;;;;8.20;7.40;;;24.10;1.00;;;;;;4973238;28;20430;-68
2021/07/03 12:07:44;;;;;;;8.30;6.77;;;23.90;1.00;;;;;;4973351;28;20427;-68
2021/07/03 12:10:13;;;;;;;8.20;6.83;;;23.80;1.00;;;;;;4955786;28;20478;-69
2021/07/03 12:12:52;;;;;;;9.00;7.50;;;23.80;1.00;;;;;;4973293;28;20415;-69
2021/07/03 12:15:27;;;;;;;6.83;6.20;;;23.80;1.00;;;;;;4972722;28;20441;-69
2021/07/03 12:17:57;;;;;;;5.83;5.30;;;23.90;1.00;;;;;;4973211;28;20421;-69
2021/07/03 12:20:26;;;;;;;5.83;5.20;;;24.20;1.00;;;;;;4972955;28;20551;-68
2021/07/03 12:22:57;;;;;;;6.57;5.97;;;24.30;1.00;;;;;;4973438;28;20456;-69
2021/07/03 12:25:25;;;;;;;6.80;5.53;;;24.10;1.00;;;;;;4973120;28;20518;-68
2021/07/03 12:27:58;;;;;;;5.90;5.40;;;24.20;1.00;;;;;;4955045;28;20534;-67
2021/07/03 12:30:27;;;;;;;7.00;6.30;;;24.20;1.00;;;;;;4972603;28;20478;-68
2021/07/03 12:33:07;;;;;;;6.47;5.50;;;24.20;1.00;;;;;;4972996;28;20441;-67
2021/07/03 12:35:38;;;;;;;7.67;5.30;;;24.20;1.00;;;;;;4972605;28;20431;-68
2021/07/03 12:38:07;;;;;;;6.83;6.23;;;24.30;1.00;;;;;;4958509;28;20439;-68
2021/07/03 12:40:37;;;;;;;6.00;5.40;;;24.90;1.00;;;;;;4973823;28;20435;-68
2021/07/03 12:43:08;;;;;;;7.90;6.23;;;25.10;1.00;;;;;;4973481;28;20427;-67
2021/07/03 12:45:39;;;;;;;6.63;5.63;;;25.20;1.00;;;;;;4972920;28;20431;-69
2021/07/03 12:48:10;;;;;;;6.60;5.23;;;25.70;1.00;;;;;;4973164;28;20442;-68
2021/07/03 12:50:40;;;;;;;5.00;4.50;;;25.90;1.00;;;;;;4974126;28;20481;-68
2021/07/03 12:53:10;;;;;;;5.77;5.07;;;26.10;1.00;;;;;;4974585;28;20936;-68
2021/07/03 12:55:42;;;;;;;5.70;5.20;;;26.40;1.00;;;;;;4974051;28;20931;-69
2021/07/03 12:58:26;;;;;;;6.10;5.10;;;26.40;1.00;;;;;;4973971;28;20427;-67